createdAt,value
2019-02-14T00:00:33.476Z,99.90
2019-02-14T00:03:02.260Z,99.90
2019-02-14T00:05:31.105Z,99.90
2019-02-14T00:07:59.873Z,99.90
2019-02-14T00:10:28.645Z,99.90
2019-02-14T00:12:57.413Z,99.90
2019-02-14T00:15:26.173Z,99.90
2019-02-14T00:17:54.942Z,99.90
2019-02-14T00:20:23.679Z,99.90
2019-02-14T00:22:52.477Z,99.90
2019-02-14T00:25:21.468Z,99.90
2019-02-14T00:27:50.241Z,99.90
2019-02-14T00:30:19.025Z,99.90
2019-02-14T00:32:47.930Z,99.90
2019-02-14T00:35:23.383Z,99.90
2019-02-14T00:37:47.389Z,99.90
2019-02-14T00:40:16.180Z,99.90
2019-02-14T00:42:44.940Z,99.90
2019-02-14T00:45:13.676Z,99.90
2019-02-14T00:47:42.467Z,99.90
2019-02-14T00:50:11.274Z,99.90
2019-02-14T00:52:40.063Z,99.90
2019-02-14T00:55:08.883Z,99.90
2019-02-14T00:57:37.657Z,99.90
2019-02-14T01:00:08.249Z,99.90
2019-02-14T01:02:37.034Z,99.90
2019-02-14T01:05:06.862Z,99.90
2019-02-14T01:07:35.710Z,99.90
2019-02-14T01:10:05.759Z,99.90
2019-02-14T01:12:34.506Z,99.90
2019-02-14T01:15:03.349Z,99.90
2019-02-14T01:17:32.092Z,99.90
2019-02-14T01:20:00.850Z,99.90
2019-02-14T01:22:29.637Z,99.90
2019-02-14T01:24:59.017Z,99.90
2019-02-14T01:27:27.861Z,99.90
2019-02-14T01:29:56.706Z,99.90
2019-02-14T01:32:25.562Z,99.90
2019-02-14T01:34:54.434Z,99.90
2019-02-14T01:37:23.186Z,99.90
2019-02-14T01:39:52.006Z,99.90
2019-02-14T01:42:20.744Z,99.90
2019-02-14T01:44:49.529Z,99.90
2019-02-14T01:47:18.340Z,99.90
2019-02-14T01:49:47.141Z,99.90
2019-02-14T01:52:15.944Z,99.90
2019-02-14T01:54:44.713Z,99.90
2019-02-14T01:57:13.536Z,99.90
2019-02-14T01:59:42.349Z,99.90
2019-02-14T02:02:11.121Z,99.90
2019-02-14T02:04:39.909Z,99.90
2019-02-14T02:07:08.776Z,99.90
2019-02-14T02:09:37.569Z,99.90
2019-02-14T02:12:06.437Z,99.90
2019-02-14T02:14:41.479Z,99.90
2019-02-14T02:17:10.317Z,99.90
2019-02-14T02:19:39.177Z,99.90
2019-02-14T02:22:08.035Z,99.90
2019-02-14T02:24:36.814Z,99.90
2019-02-14T02:27:05.809Z,99.90
2019-02-14T02:29:34.580Z,99.90
2019-02-14T02:32:03.373Z,99.90
2019-02-14T02:34:32.108Z,99.90
2019-02-14T02:37:00.872Z,99.90
2019-02-14T02:39:29.708Z,99.90
2019-02-14T02:41:58.542Z,99.90
2019-02-14T02:44:27.407Z,99.90
2019-02-14T02:46:56.236Z,99.90
2019-02-14T02:49:25.135Z,99.90
2019-02-14T02:51:53.974Z,99.90
2019-02-14T02:54:22.721Z,99.90
2019-02-14T02:56:51.522Z,99.90
2019-02-14T02:59:20.313Z,99.90
2019-02-14T03:01:49.326Z,99.90
2019-02-14T03:04:18.088Z,99.90
2019-02-14T03:06:46.852Z,99.90
2019-02-14T03:09:15.596Z,99.90
2019-02-14T03:11:44.450Z,99.90
2019-02-14T03:14:13.226Z,99.90
2019-02-14T03:16:42.054Z,99.90
2019-02-14T03:19:10.839Z,99.90
2019-02-14T03:21:39.592Z,99.90
2019-02-14T03:24:08.340Z,99.90
2019-02-14T03:26:37.123Z,99.90
2019-02-14T03:29:05.917Z,99.90
2019-02-14T03:31:34.660Z,99.90
2019-02-14T03:34:03.412Z,99.90
2019-02-14T03:36:32.169Z,99.90
2019-02-14T03:39:00.969Z,99.90
2019-02-14T03:41:29.720Z,99.90
2019-02-14T03:43:58.520Z,99.90
2019-02-14T03:46:27.291Z,99.90
2019-02-14T03:48:56.104Z,99.90
2019-02-14T03:51:24.877Z,99.90
2019-02-14T03:53:53.734Z,99.90
2019-02-14T03:56:22.495Z,99.90
2019-02-14T03:58:51.232Z,99.90
2019-02-14T04:01:20.024Z,99.90
2019-02-14T04:03:49.080Z,99.90
2019-02-14T04:06:17.872Z,99.90
2019-02-14T04:08:46.708Z,99.90
2019-02-14T04:11:15.555Z,99.90
2019-02-14T04:13:44.407Z,99.90
2019-02-14T04:16:13.259Z,99.90
2019-02-14T04:18:42.068Z,99.90
2019-02-14T04:21:10.831Z,99.90
2019-02-14T04:23:40.003Z,99.90
2019-02-14T04:26:08.747Z,99.90
2019-02-14T04:28:37.486Z,99.90
2019-02-14T04:31:06.253Z,99.90
2019-02-14T04:33:35.039Z,99.90
2019-02-14T04:36:03.825Z,99.90
2019-02-14T04:38:32.642Z,99.90
2019-02-14T04:41:01.433Z,99.90
2019-02-14T04:43:30.461Z,99.90
2019-02-14T04:45:59.493Z,99.90
2019-02-14T04:48:28.233Z,99.90
2019-02-14T04:50:56.996Z,99.90
2019-02-14T04:53:25.783Z,99.90
2019-02-14T04:55:54.641Z,99.90
2019-02-14T04:58:23.494Z,99.90
2019-02-14T05:00:52.620Z,99.90
2019-02-14T05:03:22.267Z,99.90
2019-02-14T05:05:51.097Z,99.90
2019-02-14T05:08:19.852Z,99.90
2019-02-14T05:10:48.613Z,99.90
2019-02-14T05:13:17.351Z,99.90
2019-02-14T05:15:46.129Z,99.90
2019-02-14T05:18:14.969Z,99.90
2019-02-14T05:20:43.715Z,99.90
2019-02-14T05:23:12.503Z,99.90
2019-02-14T05:25:41.270Z,99.90
2019-02-14T05:28:10.050Z,99.90
2019-02-14T05:30:38.837Z,99.90
2019-02-14T05:33:07.640Z,99.90
2019-02-14T05:35:36.739Z,99.90
2019-02-14T05:38:05.538Z,99.90
2019-02-14T05:40:34.316Z,99.90
2019-02-14T05:43:03.082Z,99.90
2019-02-14T05:45:31.857Z,99.90
2019-02-14T05:48:00.607Z,99.90
2019-02-14T05:50:29.433Z,99.90
2019-02-14T05:52:58.287Z,99.90
2019-02-14T05:55:27.060Z,99.90
2019-02-14T05:57:55.838Z,99.90
2019-02-14T06:00:24.655Z,99.90
2019-02-14T06:02:53.818Z,99.90
2019-02-14T06:05:22.623Z,99.90
2019-02-14T06:07:51.501Z,99.90
2019-02-14T06:10:20.277Z,99.90
2019-02-14T06:12:49.055Z,99.90
2019-02-14T06:15:17.805Z,99.90
2019-02-14T06:17:46.595Z,99.90
2019-02-14T06:20:15.398Z,99.90
2019-02-14T06:22:44.209Z,99.90
2019-02-14T06:25:13.701Z,99.90
2019-02-14T06:27:42.451Z,99.90
2019-02-14T06:30:13.436Z,99.90
2019-02-14T06:32:42.218Z,99.90
2019-02-14T06:35:11.726Z,99.90
2019-02-14T06:37:40.589Z,99.90
2019-02-14T06:40:15.294Z,99.90
2019-02-14T06:42:44.077Z,99.90
2019-02-14T06:45:15.370Z,99.90
2019-02-14T06:47:44.157Z,99.90
2019-02-14T06:50:12.931Z,99.90
2019-02-14T06:52:41.824Z,99.90
2019-02-14T06:55:10.706Z,99.90
2019-02-14T06:57:39.560Z,99.90
2019-02-14T07:00:17.436Z,99.90
2019-02-14T07:02:46.231Z,99.90
2019-02-14T07:05:15.040Z,99.90
2019-02-14T07:07:43.800Z,99.90
2019-02-14T07:10:13.095Z,99.90
2019-02-14T07:12:41.914Z,99.90
2019-02-14T07:15:14.293Z,99.90
2019-02-14T07:17:43.183Z,99.90
2019-02-14T07:20:14.721Z,99.90
2019-02-14T07:22:43.513Z,99.90
2019-02-14T07:25:12.707Z,99.90
2019-02-14T07:27:41.487Z,99.90
2019-02-14T07:30:13.497Z,99.90
2019-02-14T07:32:42.313Z,99.90
2019-02-14T07:35:11.115Z,99.90
2019-02-14T07:37:39.880Z,99.90
2019-02-14T07:40:11.218Z,99.90
2019-02-14T07:42:40.002Z,99.90
2019-02-14T07:45:11.913Z,99.90
2019-02-14T07:47:40.680Z,99.90
2019-02-14T07:50:11.459Z,99.90
2019-02-14T07:52:40.257Z,99.90
2019-02-14T07:55:12.824Z,99.90
2019-02-14T07:57:41.804Z,99.90
2019-02-14T08:00:18.657Z,99.90
2019-02-14T08:02:47.521Z,99.90
2019-02-14T08:05:16.293Z,99.90
2019-02-14T08:07:45.089Z,99.90
2019-02-14T08:10:15.698Z,99.90
2019-02-14T08:12:44.474Z,99.90
2019-02-14T08:15:14.278Z,99.90
2019-02-14T08:17:43.137Z,99.90
2019-02-14T08:20:16.668Z,99.90
2019-02-14T08:22:45.468Z,99.90
2019-02-14T08:25:14.316Z,99.90
2019-02-14T08:27:43.119Z,99.90
2019-02-14T08:30:14.508Z,99.90
2019-02-14T08:32:43.319Z,99.90
2019-02-14T08:35:12.169Z,99.90
2019-02-14T08:37:45.701Z,99.90
2019-02-14T08:40:14.574Z,99.90
2019-02-14T08:42:43.652Z,99.90
2019-02-14T08:45:12.737Z,99.90
2019-02-14T08:47:41.504Z,99.90
2019-02-14T08:50:10.990Z,99.90
2019-02-14T08:52:39.724Z,99.90
2019-02-14T08:55:10.049Z,99.90
2019-02-14T08:57:39.015Z,99.90
2019-02-14T09:00:13.019Z,99.90
2019-02-14T09:02:41.813Z,99.90
2019-02-14T09:05:10.636Z,99.90
2019-02-14T09:07:39.501Z,99.90
2019-02-14T09:10:11.351Z,99.90
2019-02-14T09:12:40.102Z,99.90
2019-02-14T09:15:11.560Z,99.90
2019-02-14T09:17:40.348Z,99.90
2019-02-14T09:20:12.003Z,99.90
2019-02-14T09:22:40.893Z,99.90
2019-02-14T09:25:09.692Z,99.90
2019-02-14T09:27:38.473Z,99.90
2019-02-14T09:30:15.040Z,99.90
2019-02-14T09:32:43.876Z,99.90
2019-02-14T09:35:12.673Z,99.90
2019-02-14T09:37:41.525Z,99.90
2019-02-14T09:40:14.954Z,99.90
2019-02-14T09:42:43.708Z,99.90
2019-02-14T09:45:14.048Z,99.90
2019-02-14T09:47:42.788Z,99.90
2019-02-14T09:50:12.978Z,99.90
2019-02-14T09:52:42.173Z,99.90
2019-02-14T09:55:12.330Z,99.90
2019-02-14T09:57:41.122Z,99.90
2019-02-14T10:00:12.650Z,99.90
2019-02-14T10:02:41.453Z,99.90
2019-02-14T10:05:10.759Z,99.90
2019-02-14T10:07:39.569Z,99.90
2019-02-14T10:10:11.748Z,99.90
2019-02-14T10:12:40.714Z,99.90
2019-02-14T10:15:10.333Z,99.90
2019-02-14T10:17:39.097Z,99.90
2019-02-14T10:20:10.997Z,99.90
2019-02-14T10:22:39.778Z,99.90
2019-02-14T10:25:08.892Z,99.90
2019-02-14T10:27:37.957Z,99.90
2019-02-14T10:30:10.129Z,99.90
2019-02-14T10:32:38.918Z,99.90
2019-02-14T10:35:07.698Z,99.90
2019-02-14T10:37:36.506Z,99.90
2019-02-14T10:40:08.918Z,99.90
2019-02-14T10:42:37.667Z,99.90
2019-02-14T10:45:20.718Z,99.90
2019-02-14T10:47:49.517Z,99.90
2019-02-14T10:50:18.396Z,99.90
2019-02-14T10:52:47.261Z,99.90
2019-02-14T10:55:16.645Z,99.90
2019-02-14T10:57:45.516Z,99.90
2019-02-14T11:00:25.292Z,99.90
2019-02-14T11:02:54.070Z,99.90
2019-02-14T11:05:23.197Z,99.90
2019-02-14T11:07:52.095Z,99.90
2019-02-14T11:10:20.936Z,99.90
2019-02-14T11:12:49.751Z,99.90
2019-02-14T11:15:22.931Z,99.90
2019-02-14T11:17:51.726Z,99.90
2019-02-14T11:20:20.617Z,99.90
2019-02-14T11:22:49.594Z,99.90
2019-02-14T11:25:33.181Z,99.90
2019-02-14T11:28:02.003Z,99.90
2019-02-14T11:30:30.794Z,99.90
2019-02-14T11:32:59.640Z,99.90
2019-02-14T11:35:28.497Z,99.90
2019-02-14T11:37:57.249Z,99.90
2019-02-14T11:40:26.259Z,99.90
2019-02-14T11:42:55.077Z,99.90
2019-02-14T11:45:24.960Z,99.90
2019-02-14T11:47:53.762Z,99.90
2019-02-14T11:50:22.672Z,99.90
2019-02-14T11:52:53.133Z,99.90
2019-02-14T11:55:22.188Z,99.90
2019-02-14T11:57:50.982Z,99.90
2019-02-14T12:00:26.103Z,99.90
2019-02-14T12:02:55.998Z,99.90
2019-02-14T12:05:24.920Z,99.90
2019-02-14T12:07:53.409Z,99.90
2019-02-14T12:10:21.875Z,99.90
2019-02-14T12:12:50.353Z,99.90
2019-02-14T12:15:18.861Z,99.90
2019-02-14T12:17:47.379Z,99.90
2019-02-14T12:20:16.394Z,99.90
2019-02-14T12:22:47.039Z,94.70
2019-02-14T12:25:18.244Z,90.70
2019-02-14T12:27:46.763Z,86.80
2019-02-14T12:30:15.779Z,90.60
2019-02-14T12:32:44.368Z,91.10
2019-02-14T12:35:13.047Z,94.20
2019-02-14T12:37:41.644Z,96.40
2019-02-14T12:40:13.912Z,94.50
2019-02-14T12:42:42.436Z,93.70
2019-02-14T12:45:21.699Z,92.90
2019-02-14T12:47:49.881Z,95.30
2019-02-14T12:50:18.458Z,95.60
2019-02-14T12:52:46.928Z,95.10
2019-02-14T12:55:15.421Z,96.60
2019-02-14T12:57:43.929Z,96.50
2019-02-14T13:00:15.355Z,95.20
2019-02-14T13:02:43.910Z,95.00
2019-02-14T13:05:12.494Z,93.10
2019-02-14T13:07:41.037Z,91.20
2019-02-14T13:10:11.753Z,93.30
2019-02-14T13:12:40.224Z,93.30
2019-02-14T13:15:14.501Z,94.60
2019-02-14T13:17:42.972Z,97.60
2019-02-14T13:20:11.658Z,98.50
2019-02-14T13:22:40.140Z,98.30
2019-02-14T13:25:10.892Z,98.30
2019-02-14T13:27:39.398Z,97.60
2019-02-14T13:30:10.938Z,97.40
2019-02-14T13:32:39.429Z,94.90
2019-02-14T13:35:08.073Z,95.10
2019-02-14T13:37:40.138Z,94.30
2019-02-14T13:40:08.993Z,94.70
2019-02-14T13:42:37.588Z,94.40
2019-02-14T13:45:09.286Z,96.00
2019-02-14T13:47:37.758Z,98.10
2019-02-14T13:50:09.324Z,99.90
2019-02-14T13:52:37.931Z,99.80
2019-02-14T13:55:08.290Z,99.20
2019-02-14T13:57:37.092Z,95.90
2019-02-14T14:00:11.296Z,94.90
2019-02-14T14:02:39.830Z,94.70
2019-02-14T14:05:08.467Z,94.90
2019-02-14T14:07:40.292Z,95.80
2019-02-14T14:10:09.186Z,93.30
2019-02-14T14:12:37.685Z,93.10
2019-02-14T14:15:10.176Z,90.10
2019-02-14T14:17:38.698Z,86.10
2019-02-14T14:20:08.716Z,85.20
2019-02-14T14:22:37.292Z,82.50
2019-02-14T14:25:07.433Z,82.10
2019-02-14T14:27:36.011Z,83.30
2019-02-14T14:30:08.031Z,87.50
2019-02-14T14:32:36.525Z,88.60
2019-02-14T14:35:07.281Z,87.10
2019-02-14T14:37:36.408Z,88.90
2019-02-14T14:40:13.041Z,89.30
2019-02-14T14:42:52.312Z,90.10
2019-02-14T14:45:37.280Z,90.40
2019-02-14T14:48:05.806Z,91.10
2019-02-14T14:50:34.281Z,92.50
2019-02-14T14:53:02.745Z,94.00
2019-02-14T14:55:31.249Z,96.50
2019-02-14T14:57:59.728Z,98.60
2019-02-14T15:00:28.321Z,99.90
2019-02-14T15:02:56.853Z,99.90
2019-02-14T15:05:25.715Z,99.90
2019-02-14T15:07:54.468Z,99.90
2019-02-14T15:10:23.235Z,99.90
2019-02-14T15:12:52.029Z,99.90
2019-02-14T15:15:20.773Z,99.90
2019-02-14T15:17:49.562Z,99.90
2019-02-14T15:20:18.350Z,99.90
2019-02-14T15:22:47.120Z,99.90
2019-02-14T15:25:15.970Z,99.90
2019-02-14T15:27:44.986Z,99.90
2019-02-14T15:30:13.729Z,99.90
2019-02-14T15:32:42.514Z,99.90
2019-02-14T15:35:11.332Z,99.90
2019-02-14T15:37:41.829Z,99.90
2019-02-14T15:40:10.582Z,99.90
2019-02-14T15:42:39.357Z,99.90
2019-02-14T15:45:08.750Z,99.90
2019-02-14T15:47:37.554Z,99.90
2019-02-14T15:50:08.891Z,99.90
2019-02-14T15:52:38.120Z,99.90
2019-02-14T15:55:07.849Z,99.90
2019-02-14T15:57:36.820Z,99.90
2019-02-14T16:00:10.708Z,99.90
2019-02-14T16:02:39.372Z,99.90
2019-02-14T16:05:08.402Z,99.90
2019-02-14T16:07:38.990Z,99.90
2019-02-14T16:10:17.563Z,99.90
2019-02-14T16:12:41.090Z,99.90
2019-02-14T16:15:10.113Z,99.90
2019-02-14T16:17:38.860Z,99.90
2019-02-14T16:20:08.541Z,99.90
2019-02-14T16:22:37.585Z,99.90
2019-02-14T16:25:07.875Z,99.90
2019-02-14T16:27:37.124Z,99.90
2019-02-14T16:30:09.558Z,99.90
2019-02-14T16:32:38.519Z,99.90
2019-02-14T16:35:08.375Z,99.90
2019-02-14T16:37:37.192Z,99.90
2019-02-14T16:40:09.055Z,99.90
2019-02-14T16:42:37.841Z,99.90
2019-02-14T16:45:08.542Z,99.90
2019-02-14T16:47:37.298Z,99.90
2019-02-14T16:50:08.819Z,99.90
2019-02-14T16:52:37.632Z,99.90
2019-02-14T16:55:07.119Z,99.90
2019-02-14T16:57:35.922Z,1.00
2019-02-14T17:00:13.363Z,99.90
2019-02-14T17:02:42.980Z,99.90
2019-02-14T17:05:11.784Z,1.00
2019-02-14T17:07:40.536Z,1.00
2019-02-14T17:10:11.061Z,1.00
2019-02-14T17:12:39.816Z,99.90
2019-02-14T17:15:10.045Z,99.90
2019-02-14T17:17:38.781Z,1.00
2019-02-14T17:20:09.961Z,1.00
2019-02-14T17:22:38.850Z,99.90
2019-02-14T17:25:08.270Z,99.90
2019-02-14T17:27:37.049Z,99.90
2019-02-14T17:30:09.504Z,99.90
2019-02-14T17:32:38.257Z,1.00
2019-02-14T17:35:07.760Z,1.00
2019-02-14T17:37:36.570Z,1.00
2019-02-14T17:40:09.802Z,1.00
2019-02-14T17:42:38.572Z,1.00
2019-02-14T17:45:09.072Z,1.00
2019-02-14T17:47:37.818Z,1.00
2019-02-14T17:50:07.636Z,1.00
2019-02-14T17:52:36.405Z,1.00
2019-02-14T17:55:07.997Z,1.00
2019-02-14T17:57:36.800Z,1.00
2019-02-14T18:00:08.669Z,1.00
2019-02-14T18:02:37.521Z,1.00
2019-02-14T18:05:08.113Z,1.00
2019-02-14T18:07:38.461Z,1.00
2019-02-14T18:10:12.230Z,1.00
2019-02-14T18:12:40.979Z,1.00
2019-02-14T18:15:12.278Z,1.00
2019-02-14T18:17:41.094Z,1.00
2019-02-14T18:20:11.119Z,1.00
2019-02-14T18:22:39.957Z,1.00
2019-02-14T18:25:10.719Z,1.00
2019-02-14T18:27:39.464Z,1.00
2019-02-14T18:30:10.315Z,1.00
2019-02-14T18:32:39.257Z,1.00
2019-02-14T18:35:10.162Z,1.00
2019-02-14T18:37:39.012Z,1.00
2019-02-14T18:40:12.271Z,1.00
2019-02-14T18:42:48.418Z,1.00
2019-02-14T18:45:17.186Z,1.00
2019-02-14T18:47:45.966Z,1.00
2019-02-14T18:50:15.009Z,1.00
2019-02-14T18:52:43.772Z,1.00
2019-02-14T18:55:12.843Z,1.00
2019-02-14T18:57:41.666Z,1.00
2019-02-14T19:00:19.946Z,1.00
2019-02-14T19:02:49.014Z,1.00
2019-02-14T19:05:17.757Z,1.00
2019-02-14T19:07:46.602Z,1.00
2019-02-14T19:10:16.684Z,1.00
2019-02-14T19:12:45.458Z,1.00
2019-02-14T19:15:14.514Z,1.00
2019-02-14T19:17:43.334Z,1.00
2019-02-14T19:20:12.857Z,1.00
2019-02-14T19:22:42.059Z,1.00
2019-02-14T19:25:10.928Z,1.00
2019-02-14T19:27:39.704Z,1.00
2019-02-14T19:30:10.510Z,1.00
2019-02-14T19:32:39.251Z,1.00
2019-02-14T19:35:09.566Z,1.00
2019-02-14T19:37:38.632Z,1.00
2019-02-14T19:40:08.677Z,1.00
2019-02-14T19:42:37.563Z,1.00
2019-02-14T19:45:09.650Z,1.00
2019-02-14T19:47:38.686Z,1.00
2019-02-14T19:50:12.418Z,1.00
2019-02-14T19:52:41.206Z,1.00
2019-02-14T19:55:10.137Z,1.00
2019-02-14T19:57:39.254Z,1.00
2019-02-14T20:00:13.752Z,1.00
2019-02-14T20:02:42.607Z,1.00
2019-02-14T20:05:11.438Z,1.00
2019-02-14T20:07:40.220Z,1.00
2019-02-14T20:10:13.390Z,1.00
2019-02-14T20:12:42.389Z,1.00
2019-02-14T20:15:13.587Z,1.00
2019-02-14T20:17:42.648Z,1.00
2019-02-14T20:20:11.479Z,1.00
2019-02-14T20:22:40.379Z,1.00
2019-02-14T20:25:17.974Z,1.00
2019-02-14T20:27:46.833Z,1.00
2019-02-14T20:30:15.613Z,1.00
2019-02-14T20:32:44.339Z,1.00
2019-02-14T20:35:13.194Z,1.00
2019-02-14T20:37:41.964Z,1.00
2019-02-14T20:40:10.966Z,1.00
2019-02-14T20:42:39.728Z,1.00
2019-02-14T20:45:11.473Z,1.00
2019-02-14T20:47:40.499Z,1.00
2019-02-14T20:50:15.476Z,1.00
2019-02-14T20:52:44.225Z,1.00
2019-02-14T20:55:15.783Z,1.00
2019-02-14T20:57:44.804Z,1.00
2019-02-14T21:00:17.334Z,1.00
2019-02-14T21:02:46.576Z,1.00
2019-02-14T21:05:15.498Z,1.00
2019-02-14T21:07:44.336Z,1.00
2019-02-14T21:10:13.161Z,1.00
2019-02-14T21:12:42.060Z,1.00
2019-02-14T21:15:10.938Z,1.00
2019-02-14T21:17:39.837Z,1.00
2019-02-14T21:20:10.932Z,1.00
2019-02-14T21:22:39.774Z,1.00
2019-02-14T21:25:09.292Z,1.00
2019-02-14T21:27:38.101Z,1.00
2019-02-14T21:30:14.289Z,1.00
2019-02-14T21:32:43.100Z,1.00
2019-02-14T21:35:12.004Z,1.00
2019-02-14T21:37:40.853Z,1.00
2019-02-14T21:40:17.637Z,1.00
2019-02-14T21:42:46.453Z,1.00
2019-02-14T21:45:16.328Z,1.00
2019-02-14T21:47:45.238Z,1.00
2019-02-14T21:50:17.697Z,1.00
2019-02-14T21:52:46.476Z,1.00
2019-02-14T21:55:16.026Z,1.00
2019-02-14T21:57:44.775Z,1.00
2019-02-14T22:00:19.566Z,2.40
2019-02-14T22:02:48.849Z,1.00
2019-02-14T22:05:24.035Z,2.70
2019-02-14T22:07:48.343Z,2.80
2019-02-14T22:10:17.196Z,2.90
2019-02-14T22:12:46.109Z,1.80
2019-02-14T22:15:17.879Z,2.90
2019-02-14T22:17:47.147Z,5.30
2019-02-14T22:20:16.154Z,5.50
2019-02-14T22:22:46.869Z,5.70
2019-02-14T22:25:15.847Z,6.80
2019-02-14T22:27:48.307Z,6.60
2019-02-14T22:30:23.141Z,5.30
2019-02-14T22:32:51.239Z,4.20
2019-02-14T22:35:26.174Z,9.70
2019-02-14T22:38:03.318Z,12.00
2019-02-14T22:40:33.464Z,9.00
2019-02-14T22:43:05.481Z,5.80
2019-02-14T22:45:37.574Z,8.90
2019-02-14T22:48:12.274Z,10.30
2019-02-14T22:50:48.432Z,22.20
2019-02-14T22:53:16.714Z,21.40
2019-02-14T22:55:47.545Z,22.20
2019-02-14T22:58:24.833Z,19.70
2019-02-14T23:00:56.078Z,19.30
2019-02-14T23:03:29.994Z,22.70
2019-02-14T23:06:00.442Z,22.50
2019-02-14T23:08:40.315Z,28.70
2019-02-14T23:11:09.000Z,29.20
2019-02-14T23:13:39.483Z,35.30
2019-02-14T23:16:17.372Z,37.70
2019-02-14T23:18:57.219Z,36.90
2019-02-14T23:21:28.567Z,45.60
2019-02-14T23:23:57.564Z,56.70
2019-02-14T23:26:30.752Z,63.60
2019-02-14T23:29:17.553Z,64.60
2019-02-14T23:31:46.787Z,74.50
2019-02-14T23:34:15.860Z,74.30
2019-02-14T23:36:50.880Z,75.30
2019-02-14T23:39:31.357Z,83.40
2019-02-14T23:42:11.941Z,89.60
2019-02-14T23:44:46.666Z,80.70
2019-02-14T23:47:15.893Z,75.00
2019-02-14T23:49:44.832Z,72.70
2019-02-14T23:52:22.891Z,76.70
2019-02-14T23:54:52.741Z,81.10
2019-02-14T23:57:21.797Z,79.70
2019-02-14T23:59:52.594Z,79.20
